Terminal Aerodrome Forecast
Issued by NWS Quad Cities IA IL

Home | Current Version | Previous Version | Text Only | Print | Product List | Glossary On
Versions: 1 2 3 4 5 6 7 8 9 10 11 12 13 14 15 16 17
000
FTUS43 KDVN 302013 AAA
TAFDBQ
TAF AMD
KDBQ 302013Z 3020/0118 02010G16KT P6SM FEW050
     FM302200 04006KT P6SM SKC
     FM010500 18004KT P6SM SKC=

USA.gov is the U.S. government's official web portal to all federal, state and local government web resources and services.